createdAt,value
2019-05-16T00:02:37.775Z,19.50
2019-05-16T00:05:27.905Z,19.40
2019-05-16T00:08:17.831Z,19.40
2019-05-16T00:11:05.906Z,19.40
2019-05-16T00:13:54.154Z,19.40
2019-05-16T00:16:42.770Z,19.40
2019-05-16T00:19:31.192Z,19.30
2019-05-16T00:22:19.464Z,19.30
2019-05-16T00:25:08.817Z,19.30
2019-05-16T00:27:58.657Z,19.30
2019-05-16T00:30:48.740Z,19.30
2019-05-16T00:33:38.048Z,19.30
2019-05-16T00:36:27.815Z,19.30
2019-05-16T00:39:15.820Z,19.20
2019-05-16T00:42:04.005Z,19.20
2019-05-16T00:44:52.656Z,19.20
2019-05-16T00:47:40.900Z,19.20
2019-05-16T00:50:29.499Z,19.10
2019-05-16T00:53:18.300Z,19.20
2019-05-16T00:56:07.938Z,19.10
2019-05-16T00:58:58.750Z,19.10
2019-05-16T01:01:50.010Z,19.10
2019-05-16T01:04:38.176Z,19.10
2019-05-16T01:07:27.762Z,19.00
2019-05-16T01:10:18.345Z,19.00
2019-05-16T01:13:07.985Z,19.00
2019-05-16T01:15:58.008Z,19.00
2019-05-16T01:18:48.398Z,19.00
2019-05-16T01:21:36.317Z,18.90
2019-05-16T01:24:24.951Z,18.90
2019-05-16T01:27:13.207Z,18.90
2019-05-16T01:30:01.597Z,18.90
2019-05-16T01:32:49.869Z,18.90
2019-05-16T01:35:38.601Z,18.90
2019-05-16T01:38:28.536Z,18.80
2019-05-16T01:41:18.063Z,18.80
2019-05-16T01:44:07.844Z,18.80
2019-05-16T01:46:58.551Z,18.80
2019-05-16T01:49:48.745Z,18.80
2019-05-16T01:52:38.359Z,18.70
2019-05-16T01:55:28.600Z,18.80
2019-05-16T01:58:19.838Z,18.70
2019-05-16T02:01:13.122Z,18.70
2019-05-16T02:03:58.974Z,18.70
2019-05-16T02:06:54.296Z,18.70
2019-05-16T02:09:38.396Z,18.60
2019-05-16T02:12:27.715Z,18.60
2019-05-16T02:15:18.048Z,18.60
2019-05-16T02:18:08.268Z,18.60
2019-05-16T02:21:00.957Z,18.60
2019-05-16T02:23:48.562Z,18.60
2019-05-16T02:26:38.531Z,18.60
2019-05-16T02:29:26.270Z,18.60
2019-05-16T02:32:14.610Z,18.50
2019-05-16T02:35:04.755Z,18.50
2019-05-16T02:37:55.373Z,18.50
2019-05-16T02:40:43.152Z,18.50
2019-05-16T02:43:31.773Z,18.50
2019-05-16T02:46:17.275Z,18.50
2019-05-16T02:49:05.872Z,18.50
2019-05-16T02:51:54.474Z,18.40
2019-05-16T02:54:42.619Z,18.40
2019-05-16T02:57:31.617Z,18.40
2019-05-16T03:00:23.561Z,18.40
2019-05-16T03:03:12.211Z,18.40
2019-05-16T03:06:01.921Z,18.40
2019-05-16T03:08:51.394Z,18.40
2019-05-16T03:11:42.138Z,18.40
2019-05-16T03:14:31.813Z,18.40
2019-05-16T03:17:23.304Z,18.30
2019-05-16T03:20:11.703Z,18.30
2019-05-16T03:23:02.279Z,18.40
2019-05-16T03:25:50.855Z,18.40
2019-05-16T03:28:41.286Z,18.40
2019-05-16T03:31:33.686Z,18.40
2019-05-16T03:34:25.362Z,18.40
2019-05-16T03:37:13.571Z,18.50
2019-05-16T03:40:00.519Z,18.50
2019-05-16T03:42:51.680Z,18.50
2019-05-16T03:45:41.744Z,18.50
2019-05-16T03:48:31.285Z,18.50
2019-05-16T03:51:21.317Z,18.50
2019-05-16T03:54:12.049Z,18.50
2019-05-16T03:57:00.516Z,18.50
2019-05-16T03:59:51.584Z,18.60
2019-05-16T04:02:41.981Z,18.50
2019-05-16T04:05:27.686Z,18.60
2019-05-16T04:08:23.339Z,18.50
2019-05-16T04:11:05.770Z,18.50
2019-05-16T04:13:53.944Z,18.50
2019-05-16T04:16:42.321Z,18.50
2019-05-16T04:19:31.430Z,18.50
2019-05-16T04:22:21.539Z,18.50
2019-05-16T04:25:11.433Z,18.50
2019-05-16T04:28:01.053Z,18.50
2019-05-16T04:30:50.787Z,18.50
2019-05-16T04:33:41.555Z,18.50
2019-05-16T04:36:29.039Z,18.50
2019-05-16T04:39:20.618Z,18.50
2019-05-16T04:42:07.031Z,18.50
2019-05-16T04:44:55.388Z,18.50
2019-05-16T04:47:26.073Z,18.50
2019-05-16T04:50:14.386Z,18.50
2019-05-16T04:53:03.095Z,18.50
2019-05-16T04:55:52.330Z,18.50
2019-05-16T04:58:41.175Z,18.50
2019-05-16T05:01:30.868Z,18.40
2019-05-16T05:04:21.105Z,18.40
2019-05-16T05:07:11.097Z,18.50
2019-05-16T05:10:00.531Z,18.50
2019-05-16T05:12:51.542Z,18.40
2019-05-16T05:15:40.102Z,18.40
2019-05-16T05:18:30.329Z,18.40
2019-05-16T05:21:20.878Z,18.40
2019-05-16T05:24:10.930Z,18.40
2019-05-16T05:26:59.841Z,18.40
2019-05-16T05:29:50.279Z,18.40
2019-05-16T05:32:41.070Z,18.40
2019-05-16T05:35:31.071Z,18.40
2019-05-16T05:38:21.407Z,18.40
2019-05-16T05:41:10.733Z,18.40
2019-05-16T05:43:59.859Z,18.40
2019-05-16T05:46:50.979Z,18.40
2019-05-16T05:49:40.338Z,18.40
2019-05-16T05:52:30.065Z,18.40
2019-05-16T05:55:20.044Z,18.40
2019-05-16T05:58:10.025Z,18.40
2019-05-16T06:01:00.465Z,18.40
2019-05-16T06:03:47.628Z,18.40
2019-05-16T06:06:36.105Z,18.40
2019-05-16T06:09:29.065Z,18.40
2019-05-16T06:12:14.999Z,18.40
2019-05-16T06:15:08.933Z,18.40
2019-05-16T06:17:54.133Z,18.40
2019-05-16T06:20:42.878Z,18.40
2019-05-16T06:23:31.360Z,18.50
2019-05-16T06:26:20.384Z,18.50
2019-05-16T06:29:10.401Z,18.50
2019-05-16T06:32:00.232Z,18.50
2019-05-16T06:34:50.782Z,18.50
2019-05-16T06:37:41.168Z,18.50
2019-05-16T06:40:30.275Z,18.60
2019-05-16T06:43:20.436Z,18.70
2019-05-16T06:46:10.824Z,18.70
2019-05-16T06:48:40.998Z,18.70
2019-05-16T06:51:30.557Z,18.70
2019-05-16T06:54:20.762Z,18.80
2019-05-16T06:57:10.623Z,18.80
2019-05-16T07:00:00.712Z,18.80
2019-05-16T07:02:49.986Z,18.80
2019-05-16T07:05:40.494Z,18.90
2019-05-16T07:08:31.076Z,18.90
2019-05-16T07:11:22.326Z,18.90
2019-05-16T07:14:15.047Z,18.90
2019-05-16T07:17:00.366Z,18.90
2019-05-16T07:20:02.694Z,18.90
2019-05-16T07:22:55.129Z,18.80
2019-05-16T07:25:43.772Z,18.80
2019-05-16T07:28:36.794Z,18.80
2019-05-16T07:31:26.427Z,18.80
2019-05-16T07:34:15.243Z,18.80
2019-05-16T07:37:05.217Z,18.80
2019-05-16T07:39:53.666Z,18.80
2019-05-16T07:42:42.152Z,18.80
2019-05-16T07:46:03.916Z,18.80
2019-05-16T07:48:24.113Z,18.80
2019-05-16T07:51:12.633Z,18.80
2019-05-16T07:54:01.023Z,18.80
2019-05-16T07:56:57.331Z,18.90
2019-05-16T07:59:40.472Z,18.90
2019-05-16T08:02:31.078Z,19.00
2019-05-16T08:05:21.309Z,19.10
2019-05-16T08:08:10.536Z,19.20
2019-05-16T08:11:01.500Z,19.30
2019-05-16T08:13:50.734Z,19.40
2019-05-16T08:16:40.834Z,19.50
2019-05-16T08:19:30.645Z,19.60
2019-05-16T08:22:19.008Z,19.60
2019-05-16T08:25:07.531Z,19.70
2019-05-16T08:27:55.673Z,19.70
2019-05-16T08:30:44.315Z,19.80
2019-05-16T08:33:32.683Z,19.80
2019-05-16T08:36:21.292Z,19.80
2019-05-16T08:39:11.075Z,19.90
2019-05-16T08:42:25.012Z,19.90
2019-05-16T08:45:12.636Z,20.00
2019-05-16T08:48:00.362Z,20.00
2019-05-16T08:50:35.019Z,20.00
2019-05-16T08:53:21.490Z,20.00
2019-05-16T08:56:13.061Z,20.10
2019-05-16T08:59:03.308Z,20.10
2019-05-16T09:02:00.178Z,20.10
2019-05-16T09:04:43.860Z,20.10
2019-05-16T09:07:31.918Z,20.10
2019-05-16T09:13:10.144Z,20.20
2019-05-16T09:15:58.589Z,20.20
2019-05-16T09:18:47.108Z,20.20
2019-05-16T09:21:38.304Z,20.20
2019-05-16T09:24:27.156Z,20.20
2019-05-16T09:27:18.678Z,20.30
2019-05-16T09:30:07.298Z,20.30
2019-05-16T09:32:55.470Z,20.30
2019-05-16T09:35:43.856Z,20.30
2019-05-16T09:38:32.140Z,20.30
2019-05-16T09:41:20.742Z,20.30
2019-05-16T09:44:09.504Z,20.30
2019-05-16T09:46:57.604Z,20.30
2019-05-16T09:49:47.538Z,20.30
2019-05-16T09:52:36.521Z,20.30
2019-05-16T09:55:26.839Z,20.30
2019-05-16T09:58:18.136Z,20.30
2019-05-16T10:01:06.790Z,20.40
2019-05-16T10:03:54.974Z,20.30
2019-05-16T10:06:43.198Z,20.30
2019-05-16T10:09:41.983Z,20.30
2019-05-16T10:12:21.114Z,20.30
2019-05-16T10:15:11.886Z,20.30
2019-05-16T10:18:00.252Z,20.40
2019-05-16T10:20:48.406Z,20.40
2019-05-16T10:23:39.742Z,20.40
2019-05-16T10:26:28.078Z,20.30
2019-05-16T10:29:18.416Z,20.30
2019-05-16T10:32:07.561Z,20.30
2019-05-16T10:34:57.239Z,20.30
2019-05-16T10:37:48.645Z,20.30
2019-05-16T10:40:37.108Z,20.20
2019-05-16T10:43:26.521Z,20.30
2019-05-16T10:46:17.655Z,20.20
2019-05-16T10:49:05.337Z,20.20
2019-05-16T10:51:37.732Z,20.20
2019-05-16T10:54:27.643Z,20.20
2019-05-16T10:57:16.333Z,20.20
2019-05-16T11:00:17.929Z,20.20
2019-05-16T11:02:58.723Z,20.20
2019-05-16T11:06:01.365Z,20.20
2019-05-16T11:08:37.176Z,20.20
2019-05-16T11:11:27.342Z,20.30
2019-05-16T11:14:17.274Z,20.30
2019-05-16T11:17:07.365Z,20.30
2019-05-16T11:19:55.392Z,20.40
2019-05-16T11:22:43.532Z,20.40
2019-05-16T11:25:32.664Z,20.40
2019-05-16T11:28:21.519Z,20.50
2019-05-16T11:31:10.216Z,20.40
2019-05-16T11:33:58.262Z,20.50
2019-05-16T11:36:47.798Z,20.50
2019-05-16T11:39:37.083Z,20.50
2019-05-16T11:42:27.858Z,20.50
2019-05-16T11:45:16.549Z,20.50
2019-05-16T11:48:05.105Z,20.60
2019-05-16T11:50:53.603Z,20.60
2019-05-16T11:53:41.914Z,20.60
2019-05-16T11:56:30.458Z,20.70
2019-05-16T11:59:18.788Z,20.70
2019-05-16T12:02:06.905Z,20.70
2019-05-16T12:04:57.737Z,20.70
2019-05-16T12:07:48.401Z,20.80
2019-05-16T12:10:36.356Z,20.80
2019-05-16T12:13:32.385Z,20.80
2019-05-16T12:16:18.680Z,20.80
2019-05-16T12:19:06.928Z,20.80
2019-05-16T12:21:57.070Z,20.90
2019-05-16T12:24:47.562Z,20.90
2019-05-16T12:27:41.672Z,20.90
2019-05-16T12:30:25.049Z,20.90
2019-05-16T12:33:19.521Z,21.00
2019-05-16T12:36:07.956Z,21.00
2019-05-16T12:38:57.574Z,21.10
2019-05-16T12:41:49.136Z,21.20
2019-05-16T12:44:37.309Z,21.30
2019-05-16T12:47:25.803Z,21.40
2019-05-16T12:50:17.793Z,21.40
2019-05-16T12:53:07.767Z,21.40
2019-05-16T12:55:56.656Z,21.40
2019-05-16T12:58:47.122Z,21.40
2019-05-16T13:01:38.416Z,21.40
2019-05-16T13:04:27.909Z,21.40
2019-05-16T13:07:17.337Z,21.40
2019-05-16T13:10:06.641Z,21.30
2019-05-16T13:12:57.716Z,21.30
2019-05-16T13:15:47.259Z,21.30
2019-05-16T13:18:36.802Z,21.30
2019-05-16T13:21:27.288Z,21.30
2019-05-16T13:24:14.130Z,21.30
2019-05-16T13:27:02.333Z,21.30
2019-05-16T13:29:50.873Z,21.30
2019-05-16T13:32:39.380Z,21.30
2019-05-16T13:35:28.431Z,21.30
2019-05-16T13:38:17.415Z,21.30
2019-05-16T13:41:07.425Z,21.30
2019-05-16T13:43:56.272Z,21.30
2019-05-16T13:46:46.805Z,21.20
2019-05-16T13:49:34.548Z,21.20
2019-05-16T13:52:22.768Z,21.20
2019-05-16T13:55:11.330Z,21.20
2019-05-16T13:57:59.756Z,21.20
2019-05-16T14:00:48.213Z,21.20
2019-05-16T14:03:37.371Z,21.20
2019-05-16T14:06:26.240Z,21.10
2019-05-16T14:09:14.901Z,21.10
2019-05-16T14:12:03.492Z,21.10
2019-05-16T14:14:52.256Z,21.10
2019-05-16T14:17:40.306Z,21.10
2019-05-16T14:20:28.802Z,21.10
2019-05-16T14:23:17.869Z,21.10
2019-05-16T14:26:07.135Z,21.00
2019-05-16T14:28:37.959Z,21.00
2019-05-16T14:31:26.242Z,21.10
2019-05-16T14:34:17.730Z,21.00
2019-05-16T14:37:07.011Z,21.00
2019-05-16T14:39:57.691Z,21.00
2019-05-16T14:42:44.198Z,21.00
2019-05-16T14:45:32.588Z,21.00
2019-05-16T14:48:20.797Z,21.10
2019-05-16T14:51:08.861Z,21.00
2019-05-16T14:53:57.365Z,21.00
2019-05-16T14:56:47.774Z,21.10
2019-05-16T14:59:36.679Z,21.10
2019-05-16T15:02:27.304Z,21.10
2019-05-16T15:05:15.241Z,21.10
2019-05-16T15:08:03.483Z,21.10
2019-05-16T15:10:52.068Z,21.10
2019-05-16T15:13:40.371Z,21.10
2019-05-16T15:16:29.477Z,21.10
2019-05-16T15:19:17.962Z,21.10
2019-05-16T15:22:07.958Z,21.10
2019-05-16T15:24:59.050Z,21.10
2019-05-16T15:27:47.914Z,21.10
2019-05-16T15:30:39.003Z,21.20
2019-05-16T15:33:27.375Z,21.20
2019-05-16T15:36:16.709Z,21.10
2019-05-16T15:39:08.073Z,21.10
2019-05-16T15:41:56.675Z,21.10
2019-05-16T15:44:45.138Z,21.10
2019-05-16T15:47:33.626Z,21.10
2019-05-16T15:50:23.063Z,21.10
2019-05-16T15:53:11.791Z,21.20
2019-05-16T15:56:00.369Z,21.20
2019-05-16T15:58:48.853Z,21.30
2019-05-16T16:01:37.753Z,21.20
2019-05-16T16:04:27.208Z,21.30
2019-05-16T16:07:17.848Z,21.30
2019-05-16T16:10:07.839Z,21.20
2019-05-16T16:12:56.977Z,21.20
2019-05-16T16:15:53.206Z,21.20
2019-05-16T16:18:37.730Z,21.20
2019-05-16T16:21:27.351Z,21.20
2019-05-16T16:24:19.082Z,21.20
2019-05-16T16:27:07.341Z,21.10
2019-05-16T16:29:37.754Z,21.20
2019-05-16T16:32:26.848Z,21.10
2019-05-16T16:35:17.300Z,21.10
2019-05-16T16:38:06.998Z,21.10
2019-05-16T16:40:57.458Z,21.10
2019-05-16T16:43:47.768Z,21.10
2019-05-16T16:46:37.609Z,21.00
2019-05-16T16:49:27.857Z,21.00
2019-05-16T16:52:16.765Z,21.00
2019-05-16T16:55:08.287Z,20.90
2019-05-16T16:57:59.557Z,20.90
2019-05-16T17:00:47.668Z,20.90
2019-05-16T17:03:37.187Z,20.80
2019-05-16T17:06:27.058Z,20.80
2019-05-16T17:09:15.374Z,20.80
2019-05-16T17:12:06.701Z,20.80
2019-05-16T17:14:56.852Z,20.80
2019-05-16T17:17:46.654Z,20.80
2019-05-16T17:20:37.200Z,20.80
2019-05-16T17:23:26.429Z,20.80
2019-05-16T17:26:14.882Z,20.80
2019-05-16T17:29:03.483Z,20.80
2019-05-16T17:31:56.360Z,20.80
2019-05-16T17:34:41.885Z,20.80
2019-05-16T17:37:31.135Z,20.80
2019-05-16T17:40:20.545Z,20.80
2019-05-16T17:43:08.715Z,20.90
2019-05-16T17:45:57.511Z,20.80
2019-05-16T17:48:46.967Z,20.90
2019-05-16T17:51:36.722Z,20.90
2019-05-16T17:54:26.710Z,20.90
2019-05-16T17:57:17.021Z,20.90
2019-05-16T18:00:12.988Z,21.00
2019-05-16T18:02:57.367Z,21.00
2019-05-16T18:05:47.547Z,21.00
2019-05-16T18:08:37.610Z,21.00
2019-05-16T18:11:26.759Z,21.00
2019-05-16T18:14:17.285Z,21.00
2019-05-16T18:17:07.531Z,21.00
2019-05-16T18:19:57.162Z,21.00
2019-05-16T18:22:47.162Z,21.00
2019-05-16T18:25:36.431Z,20.90
2019-05-16T18:28:26.712Z,20.90
2019-05-16T18:30:57.246Z,20.90
2019-05-16T18:33:45.695Z,20.90
2019-05-16T18:36:33.828Z,20.90
2019-05-16T18:39:22.299Z,20.90
2019-05-16T18:42:10.955Z,20.90
2019-05-16T18:45:01.238Z,20.80
2019-05-16T18:47:49.288Z,20.80
2019-05-16T18:50:38.337Z,20.80
2019-05-16T18:53:26.984Z,20.80
2019-05-16T18:56:16.850Z,20.80
2019-05-16T18:59:06.177Z,20.70
2019-05-16T19:01:55.266Z,20.70
2019-05-16T19:04:43.919Z,20.60
2019-05-16T19:07:32.414Z,20.60
2019-05-16T19:10:21.077Z,20.60
2019-05-16T19:13:12.337Z,20.60
2019-05-16T19:15:59.478Z,20.50
2019-05-16T19:18:47.742Z,20.50
2019-05-16T19:21:36.841Z,20.50
2019-05-16T19:24:27.731Z,20.50
2019-05-16T19:27:17.216Z,20.50
2019-05-16T19:30:09.484Z,20.50
2019-05-16T19:32:41.092Z,20.50
2019-05-16T19:35:12.370Z,20.50
2019-05-16T19:37:43.081Z,20.50
2019-05-16T19:40:17.028Z,20.50
2019-05-16T19:43:06.990Z,20.50
2019-05-16T19:45:57.074Z,20.50
2019-05-16T19:48:46.503Z,20.50
2019-05-16T19:51:36.361Z,20.60
2019-05-16T19:54:26.860Z,20.60
2019-05-16T19:57:17.314Z,20.60
2019-05-16T20:00:07.542Z,20.60
2019-05-16T20:02:57.031Z,20.60
2019-05-16T20:05:47.703Z,20.60
2019-05-16T20:08:37.410Z,20.60
2019-05-16T20:11:27.684Z,20.60
2019-05-16T20:14:19.343Z,20.70
2019-05-16T20:17:07.430Z,20.70
2019-05-16T20:19:56.377Z,20.70
2019-05-16T20:22:46.271Z,20.60
2019-05-16T20:25:36.609Z,20.60
2019-05-16T20:28:26.688Z,20.60
2019-05-16T20:31:16.926Z,20.60
2019-05-16T20:34:09.105Z,20.60
2019-05-16T20:36:57.067Z,20.60
2019-05-16T20:39:46.616Z,20.60
2019-05-16T20:42:36.762Z,20.60
2019-05-16T20:45:27.171Z,20.60
2019-05-16T20:48:18.250Z,20.60
2019-05-16T20:51:07.204Z,20.50
2019-05-16T20:53:57.616Z,20.50
2019-05-16T20:56:46.486Z,20.50
2019-05-16T20:59:35.497Z,20.50
2019-05-16T21:02:23.684Z,20.50
2019-05-16T21:05:13.235Z,20.50
2019-05-16T21:08:02.834Z,20.40
2019-05-16T21:10:51.215Z,20.40
2019-05-16T21:13:39.648Z,20.40
2019-05-16T21:16:28.141Z,20.40
2019-05-16T21:19:16.469Z,20.30
2019-05-16T21:22:07.150Z,20.30
2019-05-16T21:24:57.048Z,20.30
2019-05-16T21:27:46.519Z,20.30
2019-05-16T21:30:36.745Z,20.20
2019-05-16T21:33:27.336Z,20.20
2019-05-16T21:36:16.076Z,20.20
2019-05-16T21:39:08.617Z,20.20
2019-05-16T21:41:39.157Z,20.10
2019-05-16T21:44:28.958Z,20.10
2019-05-16T21:47:19.665Z,20.10
2019-05-16T21:50:09.362Z,20.10
2019-05-16T21:52:57.824Z,20.10
2019-05-16T21:55:47.208Z,20.00
2019-05-16T21:58:37.086Z,20.00
2019-05-16T22:01:26.757Z,20.00
2019-05-16T22:04:15.012Z,19.90
2019-05-16T22:07:04.241Z,19.90
2019-05-16T22:09:52.661Z,19.90
2019-05-16T22:12:41.173Z,19.90
2019-05-16T22:15:29.573Z,19.90
2019-05-16T22:18:18.070Z,19.90
2019-05-16T22:21:07.608Z,19.80
2019-05-16T22:23:57.172Z,19.80
2019-05-16T22:26:46.633Z,19.80
2019-05-16T22:29:37.121Z,19.70
2019-05-16T22:32:27.159Z,19.70
2019-05-16T22:35:18.004Z,19.70
2019-05-16T22:38:06.814Z,19.70
2019-05-16T22:40:55.195Z,19.70
2019-05-16T22:43:43.842Z,19.60
2019-05-16T22:46:31.987Z,19.60
2019-05-16T22:49:20.344Z,19.60
2019-05-16T22:52:08.674Z,19.60
2019-05-16T22:54:56.998Z,19.60
2019-05-16T22:57:47.244Z,19.50
2019-05-16T23:00:38.001Z,19.50
2019-05-16T23:03:26.736Z,19.50
2019-05-16T23:06:16.272Z,19.50
2019-05-16T23:09:07.041Z,19.40
2019-05-16T23:11:56.350Z,19.40
2019-05-16T23:14:46.281Z,19.40
2019-05-16T23:17:37.287Z,19.40
2019-05-16T23:20:24.828Z,19.30
2019-05-16T23:23:13.261Z,19.30
2019-05-16T23:26:01.815Z,19.30
2019-05-16T23:28:50.256Z,19.30
2019-05-16T23:31:38.744Z,19.30
2019-05-16T23:34:26.904Z,19.20
2019-05-16T23:37:15.390Z,19.20
2019-05-16T23:40:06.385Z,19.20
2019-05-16T23:42:37.266Z,19.20
2019-05-16T23:45:27.439Z,19.20
2019-05-16T23:48:16.421Z,19.10
2019-05-16T23:51:07.649Z,19.10
2019-05-16T23:53:57.067Z,19.10
2019-05-16T23:56:46.578Z,19.10
2019-05-16T23:59:36.915Z,19.00
